createdAt,value
2018-03-25T00:01:50.822Z,9.13
2018-03-25T00:04:18.472Z,9.11
2018-03-25T00:06:46.471Z,9.10
2018-03-25T00:09:14.082Z,9.07
2018-03-25T00:11:41.701Z,9.05
2018-03-25T00:14:09.311Z,9.03
2018-03-25T00:16:36.934Z,8.99
2018-03-25T00:19:04.701Z,8.97
2018-03-25T00:21:32.286Z,8.93
2018-03-25T00:24:00.353Z,8.91
2018-03-25T00:26:28.298Z,8.88
2018-03-25T00:28:56.465Z,8.84
2018-03-25T00:31:24.406Z,8.81
2018-03-25T00:33:52.501Z,8.78
2018-03-25T00:36:20.790Z,8.74
2018-03-25T00:38:48.432Z,8.70
2018-03-25T00:41:16.080Z,8.66
2018-03-25T00:43:43.941Z,8.64
2018-03-25T00:46:11.608Z,8.63
2018-03-25T00:48:39.451Z,8.62
2018-03-25T00:51:07.041Z,8.59
2018-03-25T00:53:34.749Z,8.57
2018-03-25T00:56:02.774Z,8.52
2018-03-25T00:58:30.740Z,8.46
2018-03-25T01:00:58.706Z,8.45
2018-03-25T01:03:26.293Z,8.41
2018-03-25T01:05:54.238Z,8.42
2018-03-25T01:08:21.930Z,8.42
2018-03-25T01:10:49.528Z,8.42
2018-03-25T01:13:17.496Z,8.43
2018-03-25T01:18:52.044Z,8.39
2018-03-25T01:21:19.702Z,8.38
2018-03-25T01:23:47.309Z,8.37
2018-03-25T01:26:15.198Z,8.35
2018-03-25T01:28:42.803Z,8.34
2018-03-25T01:31:10.402Z,8.34
2018-03-25T01:33:38.215Z,8.34
2018-03-25T01:36:05.866Z,8.33
2018-03-25T01:38:33.469Z,8.32
2018-03-25T01:41:01.051Z,8.32
2018-03-25T01:43:28.667Z,8.31
2018-03-25T01:45:56.733Z,8.29
2018-03-25T01:48:24.331Z,8.28
2018-03-25T01:50:51.929Z,8.28
2018-03-25T01:53:19.542Z,8.26
2018-03-25T01:55:47.254Z,8.25
2018-03-25T01:58:14.913Z,8.22
2018-03-25T02:00:42.536Z,8.23
2018-03-25T02:03:10.192Z,8.21
2018-03-25T02:05:38.160Z,8.22
2018-03-25T02:08:05.850Z,8.22
2018-03-25T02:10:33.689Z,8.23
2018-03-25T02:13:01.348Z,8.21
2018-03-25T02:15:28.935Z,8.22
2018-03-25T02:17:56.627Z,8.20
2018-03-25T02:20:24.238Z,8.19
2018-03-25T02:22:51.901Z,8.20
2018-03-25T02:25:19.886Z,8.19
2018-03-25T02:27:47.569Z,8.18
2018-03-25T02:30:15.215Z,8.16
2018-03-25T02:32:42.843Z,8.17
2018-03-25T02:35:10.432Z,8.16
2018-03-25T02:37:38.138Z,8.15
2018-03-25T02:40:05.770Z,8.16
2018-03-25T02:42:34.131Z,8.17
2018-03-25T02:45:01.707Z,8.16
2018-03-25T02:47:29.330Z,8.15
2018-03-25T02:49:57.074Z,8.15
2018-03-25T02:52:25.190Z,8.09
2018-03-25T02:54:52.788Z,8.10
2018-03-25T02:57:20.428Z,8.12
2018-03-25T02:59:48.028Z,8.11
2018-03-25T03:02:15.785Z,8.09
2018-03-25T03:04:43.379Z,8.07
2018-03-25T03:07:11.264Z,8.04
2018-03-25T03:09:39.178Z,8.04
2018-03-25T03:12:07.045Z,8.03
2018-03-25T03:14:34.714Z,8.02
2018-03-25T03:17:02.345Z,8.02
2018-03-25T03:19:30.192Z,8.00
2018-03-25T03:21:57.856Z,8.00
2018-03-25T03:24:25.853Z,7.99
2018-03-25T03:26:53.586Z,7.98
2018-03-25T03:29:21.556Z,7.97
2018-03-25T03:31:49.454Z,7.96
2018-03-25T03:34:17.052Z,7.94
2018-03-25T03:36:44.738Z,7.94
2018-03-25T03:39:12.631Z,7.93
2018-03-25T03:41:40.657Z,7.93
2018-03-25T03:44:08.246Z,7.91
2018-03-25T03:46:35.914Z,7.90
2018-03-25T03:49:03.561Z,7.89
2018-03-25T03:51:31.443Z,7.89
2018-03-25T03:53:59.316Z,7.87
2018-03-25T03:56:27.282Z,7.87
2018-03-25T03:58:54.873Z,7.86
2018-03-25T04:01:22.816Z,7.84
2018-03-25T04:03:50.473Z,7.81
2018-03-25T04:06:18.079Z,7.81
2018-03-25T04:08:45.708Z,7.82
2018-03-25T04:11:13.414Z,7.80
2018-03-25T04:13:41.033Z,7.80
2018-03-25T04:16:08.614Z,7.77
2018-03-25T04:18:36.338Z,7.75
2018-03-25T04:21:03.977Z,7.75
2018-03-25T04:23:31.637Z,7.74
2018-03-25T04:25:59.540Z,7.74
2018-03-25T04:28:27.203Z,7.72
2018-03-25T04:30:55.272Z,7.70
2018-03-25T04:33:22.866Z,7.69
2018-03-25T04:35:50.505Z,7.70
2018-03-25T04:38:18.104Z,7.70
2018-03-25T04:40:46.124Z,7.69
2018-03-25T04:43:14.200Z,7.68
2018-03-25T04:45:41.784Z,7.68
2018-03-25T04:48:09.400Z,7.70
2018-03-25T04:50:37.288Z,7.70
2018-03-25T04:53:04.874Z,7.69
2018-03-25T04:55:32.524Z,7.69
2018-03-25T04:58:00.131Z,7.68
2018-03-25T05:00:27.870Z,7.69
2018-03-25T05:02:55.474Z,7.68
2018-03-25T05:05:23.055Z,7.63
2018-03-25T05:07:51.031Z,7.62
2018-03-25T05:10:18.740Z,7.61
2018-03-25T05:12:46.339Z,7.62
2018-03-25T05:15:14.323Z,7.61
2018-03-25T05:17:42.035Z,7.58
2018-03-25T05:20:09.999Z,7.58
2018-03-25T05:22:37.576Z,7.58
2018-03-25T05:25:05.248Z,7.60
2018-03-25T05:27:33.036Z,7.59
2018-03-25T05:30:00.707Z,7.60
2018-03-25T05:32:28.570Z,7.59
2018-03-25T05:34:56.210Z,7.56
2018-03-25T05:37:23.808Z,7.55
2018-03-25T05:39:51.465Z,7.54
2018-03-25T05:42:19.060Z,7.55
2018-03-25T05:44:46.842Z,7.56
2018-03-25T05:47:14.583Z,7.55
2018-03-25T05:49:42.375Z,7.56
2018-03-25T05:52:10.046Z,7.55
2018-03-25T05:54:37.725Z,7.56
2018-03-25T05:57:05.317Z,7.57
2018-03-25T05:59:32.941Z,7.57
2018-03-25T06:02:00.688Z,7.56
2018-03-25T06:04:28.694Z,7.57
2018-03-25T06:06:56.559Z,7.58
2018-03-25T06:09:24.474Z,7.60
2018-03-25T06:11:52.087Z,7.60
2018-03-25T06:14:19.707Z,7.60
2018-03-25T06:16:47.418Z,7.62
2018-03-25T06:19:15.001Z,7.60
2018-03-25T06:21:42.677Z,7.61
2018-03-25T06:24:10.689Z,7.64
2018-03-25T06:26:38.347Z,7.65
2018-03-25T06:29:05.940Z,7.69
2018-03-25T06:31:33.635Z,7.71
2018-03-25T06:34:01.219Z,7.73
2018-03-25T06:36:28.814Z,7.76
2018-03-25T06:38:56.439Z,7.80
2018-03-25T06:41:24.570Z,7.83
2018-03-25T06:43:52.227Z,7.85
2018-03-25T06:46:19.900Z,7.88
2018-03-25T06:48:47.612Z,7.91
2018-03-25T06:51:15.271Z,7.94
2018-03-25T06:53:42.907Z,7.97
2018-03-25T06:56:10.535Z,8.01
2018-03-25T06:58:38.394Z,8.04
2018-03-25T07:01:06.029Z,8.06
2018-03-25T07:03:34.023Z,8.08
2018-03-25T07:06:01.891Z,8.11
2018-03-25T07:08:29.527Z,8.13
2018-03-25T07:10:57.272Z,8.13
2018-03-25T07:13:25.284Z,8.14
2018-03-25T07:15:53.255Z,8.18
2018-03-25T07:18:20.870Z,8.18
2018-03-25T07:20:48.486Z,8.20
2018-03-25T07:23:17.266Z,8.24
2018-03-25T07:25:45.897Z,8.27
2018-03-25T07:28:14.521Z,8.32
2018-03-25T07:30:42.200Z,8.37
2018-03-25T07:33:10.923Z,8.41
2018-03-25T07:35:38.630Z,8.46
2018-03-25T07:38:06.438Z,8.51
2018-03-25T07:40:34.060Z,8.55
2018-03-25T07:43:02.149Z,8.60
2018-03-25T07:45:29.814Z,8.63
2018-03-25T07:47:57.547Z,8.67
2018-03-25T07:50:25.153Z,8.67
2018-03-25T07:52:52.775Z,8.69
2018-03-25T07:55:20.424Z,8.70
2018-03-25T07:57:48.031Z,8.68
2018-03-25T08:00:15.861Z,8.74
2018-03-25T08:02:43.996Z,8.80
2018-03-25T08:05:11.589Z,8.85
2018-03-25T08:07:39.178Z,8.87
2018-03-25T08:10:06.879Z,8.92
2018-03-25T08:12:34.516Z,8.96
2018-03-25T08:15:02.354Z,8.99
2018-03-25T08:17:30.024Z,9.03
2018-03-25T08:19:57.905Z,9.10
2018-03-25T08:22:25.736Z,9.17
2018-03-25T08:24:53.426Z,9.23
2018-03-25T08:27:21.065Z,9.29
2018-03-25T08:29:48.685Z,9.32
2018-03-25T08:32:16.265Z,9.37
2018-03-25T08:34:43.980Z,9.43
2018-03-25T08:37:11.650Z,9.50
2018-03-25T08:39:39.906Z,9.54
2018-03-25T08:42:08.055Z,9.57
2018-03-25T08:44:35.653Z,9.59
2018-03-25T08:47:03.235Z,9.62
2018-03-25T08:49:30.965Z,9.65
2018-03-25T08:51:58.628Z,9.71
2018-03-25T08:54:26.257Z,9.77
2018-03-25T08:56:54.287Z,9.81
2018-03-25T08:59:22.250Z,9.79
2018-03-25T09:01:49.902Z,9.83
2018-03-25T09:04:17.525Z,9.88
2018-03-25T09:06:45.210Z,9.93
2018-03-25T09:09:12.865Z,9.97
2018-03-25T09:11:40.470Z,10.02
2018-03-25T09:14:08.081Z,10.02
2018-03-25T09:16:36.160Z,10.04
2018-03-25T09:19:03.767Z,10.09
2018-03-25T09:21:31.448Z,10.18
2018-03-25T09:23:59.111Z,10.19
2018-03-25T09:26:26.938Z,10.25
2018-03-25T09:28:54.535Z,10.31
2018-03-25T09:31:22.465Z,10.37
2018-03-25T09:33:50.355Z,10.42
2018-03-25T09:36:18.310Z,10.47
2018-03-25T09:38:45.968Z,10.52
2018-03-25T09:41:13.590Z,10.55
2018-03-25T09:43:41.187Z,10.61
2018-03-25T09:46:08.842Z,10.65
2018-03-25T09:48:36.480Z,10.72
2018-03-25T09:51:04.105Z,10.79
2018-03-25T09:53:35.183Z,10.88
2018-03-25T09:56:02.775Z,10.95
2018-03-25T09:58:30.396Z,10.99
2018-03-25T10:01:03.813Z,11.04
2018-03-25T10:03:31.878Z,11.10
2018-03-25T10:05:59.620Z,11.11
2018-03-25T10:08:29.823Z,11.14
2018-03-25T10:10:57.463Z,11.22
2018-03-25T10:13:25.109Z,11.31
2018-03-25T10:15:52.754Z,11.38
2018-03-25T10:18:20.750Z,11.44
2018-03-25T10:20:48.370Z,11.52
2018-03-25T10:23:16.390Z,11.59
2018-03-25T10:25:44.027Z,11.68
2018-03-25T10:28:11.628Z,11.77
2018-03-25T10:30:39.269Z,11.84
2018-03-25T10:33:07.063Z,11.94
2018-03-25T10:35:35.154Z,11.99
2018-03-25T10:38:02.828Z,12.06
2018-03-25T10:40:30.418Z,12.11
2018-03-25T10:42:58.046Z,12.18
2018-03-25T10:45:25.655Z,12.23
2018-03-25T10:47:54.299Z,12.30
2018-03-25T10:50:21.900Z,12.35
2018-03-25T10:52:49.496Z,12.44
2018-03-25T10:55:17.159Z,12.54
2018-03-25T10:57:44.780Z,12.65
2018-03-25T11:00:12.491Z,12.70
2018-03-25T11:02:40.116Z,12.74
2018-03-25T11:05:07.734Z,12.86
2018-03-25T11:07:35.745Z,12.93
2018-03-25T11:10:03.386Z,13.01
2018-03-25T11:12:31.123Z,13.10
2018-03-25T11:15:02.697Z,13.25
2018-03-25T11:17:30.312Z,13.32
2018-03-25T11:19:58.278Z,13.44
2018-03-25T11:22:25.962Z,13.53
2018-03-25T11:24:53.559Z,13.65
2018-03-25T11:27:21.289Z,13.79
2018-03-25T11:29:49.138Z,13.93
2018-03-25T11:32:16.768Z,14.13
2018-03-25T11:34:44.459Z,14.35
2018-03-25T11:37:12.108Z,14.42
2018-03-25T11:39:40.161Z,14.55
2018-03-25T11:42:08.021Z,14.64
2018-03-25T11:44:35.694Z,14.71
2018-03-25T11:47:03.353Z,14.78
2018-03-25T11:49:31.223Z,14.90
2018-03-25T11:51:58.863Z,14.95
2018-03-25T11:54:26.752Z,14.97
2018-03-25T11:56:54.389Z,15.03
2018-03-25T11:59:22.479Z,15.03
2018-03-25T12:01:50.375Z,15.11
2018-03-25T12:04:17.990Z,15.23
2018-03-25T12:06:45.639Z,15.29
2018-03-25T12:09:13.648Z,15.35
2018-03-25T12:11:41.405Z,15.53
2018-03-25T12:14:09.387Z,15.63
2018-03-25T12:16:36.980Z,15.57
2018-03-25T12:19:05.015Z,15.54
2018-03-25T12:21:33.088Z,15.48
2018-03-25T12:24:00.673Z,15.47
2018-03-25T12:26:28.287Z,15.45
2018-03-25T12:28:56.582Z,15.30
2018-03-25T12:31:24.437Z,15.26
2018-03-25T12:33:52.432Z,15.30
2018-03-25T12:36:20.391Z,15.37
2018-03-25T12:38:47.982Z,15.39
2018-03-25T12:41:15.929Z,15.48
2018-03-25T12:43:43.546Z,15.59
2018-03-25T12:46:11.511Z,15.66
2018-03-25T12:48:39.100Z,15.65
2018-03-25T12:51:06.703Z,15.59
2018-03-25T12:53:34.332Z,15.56
2018-03-25T12:56:02.060Z,15.55
2018-03-25T12:58:29.660Z,15.55
2018-03-25T13:00:57.433Z,15.52
2018-03-25T13:03:25.022Z,15.45
2018-03-25T13:05:52.876Z,15.40
2018-03-25T13:08:20.884Z,15.42
2018-03-25T13:10:48.478Z,15.45
2018-03-25T13:13:16.079Z,15.35
2018-03-25T13:15:44.121Z,15.17
2018-03-25T13:18:11.775Z,15.00
2018-03-25T13:20:39.427Z,15.04
2018-03-25T13:23:07.068Z,15.11
2018-03-25T13:25:34.700Z,15.06
2018-03-25T13:28:02.370Z,14.90
2018-03-25T13:30:30.015Z,14.82
2018-03-25T13:32:57.622Z,14.71
2018-03-25T13:35:25.514Z,14.58
2018-03-25T13:37:53.159Z,14.44
2018-03-25T13:40:20.818Z,14.32
2018-03-25T13:42:48.436Z,14.17
2018-03-25T13:45:16.119Z,14.06
2018-03-25T13:47:43.746Z,13.98
2018-03-25T13:50:11.371Z,13.90
2018-03-25T13:52:39.056Z,13.79
2018-03-25T13:55:06.753Z,13.76
2018-03-25T13:57:34.349Z,13.60
2018-03-25T14:00:02.001Z,13.44
2018-03-25T14:02:29.601Z,13.24
2018-03-25T14:04:57.467Z,13.22
2018-03-25T14:07:25.094Z,13.20
2018-03-25T14:09:52.695Z,13.16
2018-03-25T14:12:20.329Z,13.18
2018-03-25T14:14:47.976Z,13.17
2018-03-25T14:17:15.621Z,13.18
2018-03-25T14:19:43.461Z,13.11
2018-03-25T14:22:11.319Z,12.91
2018-03-25T14:24:38.962Z,12.84
2018-03-25T14:27:06.557Z,12.75
2018-03-25T14:29:34.200Z,12.69
2018-03-25T14:32:01.873Z,12.73
2018-03-25T14:34:29.471Z,12.76
2018-03-25T14:36:57.143Z,12.72
2018-03-25T14:39:24.750Z,12.68
2018-03-25T14:41:52.708Z,12.62
2018-03-25T14:44:20.365Z,12.61
2018-03-25T14:46:47.970Z,12.60
2018-03-25T14:49:15.568Z,12.58
2018-03-25T14:51:43.306Z,12.53
2018-03-25T14:54:11.049Z,12.49
2018-03-25T14:56:38.658Z,12.41
2018-03-25T14:59:06.283Z,12.38
2018-03-25T15:01:33.919Z,12.29
2018-03-25T15:04:01.525Z,12.27
2018-03-25T15:06:29.300Z,12.26
2018-03-25T15:08:56.942Z,12.28
2018-03-25T15:11:24.937Z,12.31
2018-03-25T15:13:52.570Z,12.24
2018-03-25T15:16:20.226Z,12.22
2018-03-25T15:18:47.830Z,12.23
2018-03-25T15:21:15.444Z,12.22
2018-03-25T15:23:43.089Z,12.21
2018-03-25T15:26:10.703Z,12.23
2018-03-25T15:28:38.400Z,12.24
2018-03-25T15:31:06.264Z,12.19
2018-03-25T15:33:33.974Z,12.22
2018-03-25T15:36:01.999Z,12.22
2018-03-25T15:38:29.623Z,12.26
2018-03-25T15:40:57.332Z,12.24
2018-03-25T15:43:25.185Z,12.18
2018-03-25T15:45:52.831Z,12.15
2018-03-25T15:48:20.468Z,12.10
2018-03-25T15:50:48.479Z,12.04
2018-03-25T15:53:16.147Z,11.98
2018-03-25T15:55:43.808Z,11.91
2018-03-25T15:58:11.661Z,11.83
2018-03-25T16:00:39.241Z,11.71
2018-03-25T16:03:06.924Z,11.55
2018-03-25T16:05:34.525Z,11.53
2018-03-25T16:08:02.355Z,11.47
2018-03-25T16:10:29.997Z,11.44
2018-03-25T16:12:57.634Z,11.44
2018-03-25T16:15:25.350Z,11.37
2018-03-25T16:17:52.932Z,11.32
2018-03-25T16:20:20.610Z,11.26
2018-03-25T16:22:48.245Z,11.25
2018-03-25T16:25:15.974Z,11.24
2018-03-25T16:27:43.618Z,11.18
2018-03-25T16:30:11.247Z,11.18
2018-03-25T16:32:38.884Z,11.17
2018-03-25T16:35:06.507Z,11.16
2018-03-25T16:37:34.106Z,11.12
2018-03-25T16:40:01.817Z,11.05
2018-03-25T16:42:29.477Z,11.02
2018-03-25T16:44:57.377Z,10.97
2018-03-25T16:47:24.977Z,10.93
2018-03-25T16:49:52.891Z,10.92
2018-03-25T16:52:20.599Z,10.88
2018-03-25T16:54:48.252Z,10.86
2018-03-25T16:57:15.864Z,10.81
2018-03-25T16:59:43.918Z,10.81
2018-03-25T17:02:11.514Z,10.70
2018-03-25T17:04:39.137Z,10.59
2018-03-25T17:07:06.779Z,10.47
2018-03-25T17:09:34.755Z,10.35
2018-03-25T17:12:02.363Z,10.32
2018-03-25T17:14:29.986Z,10.27
2018-03-25T17:16:57.678Z,10.16
2018-03-25T17:19:25.446Z,10.13
2018-03-25T17:21:53.119Z,10.12
2018-03-25T17:24:21.090Z,10.03
2018-03-25T17:26:48.701Z,10.01
2018-03-25T17:29:16.603Z,10.00
2018-03-25T17:31:44.245Z,9.97
2018-03-25T17:34:11.872Z,9.92
2018-03-25T17:36:39.473Z,9.86
2018-03-25T17:39:07.371Z,9.83
2018-03-25T17:41:34.966Z,9.81
2018-03-25T17:44:02.761Z,9.77
2018-03-25T17:46:30.660Z,9.75
2018-03-25T17:48:58.253Z,9.74
2018-03-25T17:51:25.917Z,9.67
2018-03-25T17:53:53.548Z,9.65
2018-03-25T17:56:21.151Z,9.59
2018-03-25T17:58:48.773Z,9.55
2018-03-25T18:01:16.375Z,9.49
2018-03-25T18:03:43.993Z,9.53
2018-03-25T18:06:11.588Z,9.50
2018-03-25T18:08:39.227Z,9.47
2018-03-25T18:11:07.182Z,9.38
2018-03-25T18:13:35.048Z,9.32
2018-03-25T18:16:02.715Z,9.25
2018-03-25T18:18:30.681Z,9.21
2018-03-25T18:20:58.357Z,9.13
2018-03-25T18:23:25.977Z,9.02
2018-03-25T18:26:04.665Z,9.02
2018-03-25T18:28:32.597Z,9.01
2018-03-25T18:31:00.212Z,8.99
2018-03-25T18:33:27.908Z,8.96
2018-03-25T18:35:55.593Z,8.93
2018-03-25T18:38:23.230Z,8.91
2018-03-25T18:40:50.861Z,8.90
2018-03-25T18:43:18.550Z,8.90
2018-03-25T18:45:46.377Z,8.92
2018-03-25T18:48:13.974Z,8.85
2018-03-25T18:50:41.944Z,8.83
2018-03-25T18:53:09.626Z,8.71
2018-03-25T18:55:39.065Z,8.62
2018-03-25T18:58:06.946Z,8.63
2018-03-25T19:00:34.548Z,8.62
2018-03-25T19:03:02.311Z,8.61
2018-03-25T19:05:29.906Z,8.61
2018-03-25T19:07:57.548Z,8.62
2018-03-25T19:10:25.521Z,8.61
2018-03-25T19:12:53.507Z,8.56
2018-03-25T19:15:21.300Z,8.55
2018-03-25T19:17:48.902Z,8.57
2018-03-25T19:20:16.657Z,8.55
2018-03-25T19:22:44.328Z,8.54
2018-03-25T19:25:11.967Z,8.55
2018-03-25T19:27:39.627Z,8.55
2018-03-25T19:30:07.288Z,8.55
2018-03-25T19:32:35.079Z,8.54
2018-03-25T19:35:03.019Z,8.55
2018-03-25T19:37:30.586Z,8.51
2018-03-25T19:39:58.242Z,8.52
2018-03-25T19:42:25.873Z,8.53
2018-03-25T19:44:53.470Z,8.54
2018-03-25T19:47:21.117Z,8.54
2018-03-25T19:49:48.755Z,8.54
2018-03-25T19:52:16.365Z,8.50
2018-03-25T19:54:43.998Z,8.49
2018-03-25T19:57:11.588Z,8.49
2018-03-25T19:59:39.243Z,8.46
2018-03-25T20:02:06.872Z,8.44
2018-03-25T20:04:34.864Z,8.42
2018-03-25T20:07:02.462Z,8.39
2018-03-25T20:09:30.102Z,8.36
2018-03-25T20:11:57.806Z,8.31
2018-03-25T20:14:25.782Z,8.24
2018-03-25T20:16:53.757Z,8.19
2018-03-25T20:19:21.410Z,8.16
2018-03-25T20:21:49.428Z,8.14
2018-03-25T20:24:17.017Z,8.10
2018-03-25T20:26:44.874Z,8.07
2018-03-25T20:29:12.508Z,8.03
2018-03-25T20:31:40.120Z,8.02
2018-03-25T20:34:07.983Z,8.01
2018-03-25T20:36:35.627Z,7.98
2018-03-25T20:39:03.322Z,7.95
2018-03-25T20:41:30.920Z,7.93
2018-03-25T20:43:59.006Z,7.90
2018-03-25T20:46:26.619Z,7.87
2018-03-25T20:48:54.272Z,7.85
2018-03-25T20:51:21.929Z,7.83
2018-03-25T20:53:49.567Z,7.80
2018-03-25T20:56:17.231Z,7.79
2018-03-25T20:58:44.920Z,7.78
2018-03-25T21:01:12.713Z,7.77
2018-03-25T21:03:40.322Z,7.75
2018-03-25T21:06:07.912Z,7.73
2018-03-25T21:08:35.874Z,7.69
2018-03-25T21:11:03.468Z,7.66
2018-03-25T21:13:31.075Z,7.62
2018-03-25T21:15:59.377Z,7.58
2018-03-25T21:18:27.017Z,7.54
2018-03-25T21:20:54.607Z,7.51
2018-03-25T21:23:22.670Z,7.46
2018-03-25T21:25:50.288Z,7.43
2018-03-25T21:28:17.900Z,7.40
2018-03-25T21:30:45.520Z,7.35
2018-03-25T21:33:13.173Z,7.29
2018-03-25T21:35:40.781Z,7.24
2018-03-25T21:38:08.752Z,7.18
2018-03-25T21:40:36.418Z,7.13
2018-03-25T21:43:04.059Z,7.09
2018-03-25T21:45:31.945Z,7.05
2018-03-25T21:47:59.630Z,7.00
2018-03-25T21:50:27.350Z,6.96
2018-03-25T21:52:55.041Z,6.91
2018-03-25T21:55:22.916Z,6.85
2018-03-25T21:57:50.549Z,6.82
2018-03-25T22:00:18.414Z,6.77
2018-03-25T22:02:46.057Z,6.73
2018-03-25T22:05:13.649Z,6.69
2018-03-25T22:07:41.728Z,6.66
2018-03-25T22:10:09.584Z,6.63
2018-03-25T22:12:37.162Z,6.58
2018-03-25T22:15:04.899Z,6.55
2018-03-25T22:17:32.503Z,6.53
2018-03-25T22:20:00.129Z,6.49
2018-03-25T22:22:28.280Z,6.47
2018-03-25T22:24:55.933Z,6.43
2018-03-25T22:27:23.829Z,6.40
2018-03-25T22:29:51.654Z,6.36
2018-03-25T22:32:19.293Z,6.32
2018-03-25T22:34:46.974Z,6.29
2018-03-25T22:37:14.575Z,6.25
2018-03-25T22:39:42.190Z,6.22
2018-03-25T22:42:09.774Z,6.18
2018-03-25T22:44:37.414Z,6.13
2018-03-25T22:47:05.069Z,6.09
2018-03-25T22:49:32.675Z,6.06
2018-03-25T22:52:00.281Z,6.03
2018-03-25T22:54:27.892Z,5.99
2018-03-25T22:56:55.518Z,5.95
2018-03-25T22:59:23.213Z,5.90
2018-03-25T23:01:50.804Z,5.85
2018-03-25T23:04:18.442Z,5.82
2018-03-25T23:06:46.290Z,5.79
2018-03-25T23:09:13.888Z,5.76
2018-03-25T23:11:41.476Z,5.72
2018-03-25T23:14:09.197Z,5.66
2018-03-25T23:16:36.854Z,5.63
2018-03-25T23:19:04.455Z,5.59
2018-03-25T23:21:32.052Z,5.55
2018-03-25T23:23:59.695Z,5.51
2018-03-25T23:26:27.280Z,5.46
2018-03-25T23:28:55.178Z,5.42
2018-03-25T23:31:22.869Z,5.36
2018-03-25T23:33:50.524Z,5.30
2018-03-25T23:36:18.197Z,5.24
2018-03-25T23:38:45.793Z,5.20
2018-03-25T23:41:13.400Z,5.18
2018-03-25T23:43:41.424Z,5.15
2018-03-25T23:46:09.032Z,5.14
2018-03-25T23:48:36.653Z,5.11
2018-03-25T23:51:04.304Z,5.09
2018-03-25T23:53:31.906Z,5.07
2018-03-25T23:55:59.536Z,5.04
2018-03-25T23:58:27.241Z,5.02
